AAL2242 KPHX-KLAS
Flight info
| Callsign | AAL2242 |
|---|---|
| Flight time | 0h 42m |
| Altitude | 28000 |
| Route | ZEPER2 RRSTA ELLDA RKSTR4 |
| Aircraft | A21N/M-SDE2E3FGHIRWXY/LB1 |
Departure
| Time | 2026-05-06 22:24 |
|---|---|
| Airport | Phoenix Sky Harbor International Airport (KPHX) |
Arrival
| Time | 2026-05-06 23:07 |
|---|---|
| Airport | Harry Reid International Airport (KLAS) |
| Time | Latitude | Longitude | Altitude | Speed | Heading |
|---|---|---|---|---|---|
| 2026-05-06 21:46 | 33.43722 | -111.99869 | 1127 ft | 0 kts | 270° |
| 2026-05-06 22:09 | 33.43722 | -111.99868 | 1016 ft | 2 kts | 270° |
| 2026-05-06 22:10 | 33.43722 | -111.99849 | 1118 ft | 2 kts | 272° |
| 2026-05-06 22:10 | 33.43720 | -111.99829 | 1118 ft | 2 kts | 284° |
| 2026-05-06 22:10 | 33.43710 | -111.99816 | 1120 ft | 2 kts | 359° |
| 2026-05-06 22:10 | 33.43707 | -111.99816 | 1119 ft | 0 kts | 0° |
| 2026-05-06 22:13 | 33.43708 | -111.99817 | 1127 ft | 0 kts | 358° |
| 2026-05-06 22:16 | 33.43712 | -111.99817 | 1127 ft | 2 kts | 358° |
| 2026-05-06 22:16 | 33.43746 | -111.99819 | 1122 ft | 7 kts | 354° |
| 2026-05-06 22:16 | 33.43810 | -111.99826 | 1122 ft | 11 kts | 358° |
| 2026-05-06 22:16 | 33.43895 | -111.99859 | 1126 ft | 15 kts | 298° |
| 2026-05-06 22:17 | 33.43903 | -112.00006 | 1128 ft | 20 kts | 271° |
| 2026-05-06 22:17 | 33.43905 | -112.00196 | 1128 ft | 25 kts | 270° |
| 2026-05-06 22:17 | 33.43895 | -112.00352 | 1123 ft | 15 kts | 238° |
| 2026-05-06 22:17 | 33.43795 | -112.00378 | 1123 ft | 17 kts | 180° |
| 2026-05-06 22:18 | 33.43632 | -112.00378 | 1123 ft | 29 kts | 180° |
| 2026-05-06 22:18 | 33.43435 | -112.00380 | 1123 ft | 28 kts | 180° |
| 2026-05-06 22:18 | 33.43317 | -112.00373 | 1125 ft | 12 kts | 155° |
| 2026-05-06 22:18 | 33.43283 | -112.00253 | 1122 ft | 21 kts | 89° |
| 2026-05-06 22:19 | 33.43283 | -112.00026 | 1122 ft | 31 kts | 90° |
| 2026-05-06 22:19 | 33.43283 | -111.99770 | 1122 ft | 30 kts | 89° |
| 2026-05-06 22:19 | 33.43283 | -111.99519 | 1122 ft | 30 kts | 90° |
| 2026-05-06 22:19 | 33.43282 | -111.99383 | 1123 ft | 10 kts | 100° |
| 2026-05-06 22:20 | 33.43259 | -111.99348 | 1126 ft | 3 kts | 154° |
| 2026-05-06 22:20 | 33.43230 | -111.99345 | 1131 ft | 7 kts | 179° |
| 2026-05-06 22:20 | 33.43202 | -111.99344 | 1133 ft | 0 kts | 179° |
| 2026-05-06 22:21 | 33.43196 | -111.99344 | 1134 ft | 3 kts | 180° |
| 2026-05-06 22:21 | 33.43166 | -111.99345 | 1136 ft | 9 kts | 180° |
| 2026-05-06 22:21 | 33.43100 | -111.99383 | 1138 ft | 10 kts | 261° |
| 2026-05-06 22:22 | 33.43101 | -111.99420 | 1137 ft | 0 kts | 271° |
| 2026-05-06 22:23 | 33.43103 | -111.99555 | 1135 ft | 44 kts | 271° |
| 2026-05-06 22:23 | 33.43102 | -112.00170 | 1139 ft | 104 kts | 270° |
| 2026-05-06 22:24 | 33.43102 | -112.01271 | 1135 ft | 158 kts | 270° |
| 2026-05-06 22:24 | 33.43103 | -112.02678 | 1439 ft | 172 kts | 268° |
| 2026-05-06 22:24 | 33.43089 | -112.04084 | 2117 ft | 168 kts | 267° |
| 2026-05-06 22:24 | 33.43081 | -112.05466 | 2741 ft | 165 kts | 270° |
| 2026-05-06 22:25 | 33.43099 | -112.06879 | 3169 ft | 182 kts | 269° |
| 2026-05-06 22:25 | 33.43150 | -112.08488 | 3499 ft | 203 kts | 271° |
| 2026-05-06 22:25 | 33.43224 | -112.10241 | 3922 ft | 220 kts | 271° |
| 2026-05-06 22:25 | 33.43295 | -112.12132 | 4436 ft | 233 kts | 272° |
| 2026-05-06 22:26 | 33.43362 | -112.14104 | 5098 ft | 240 kts | 271° |
| 2026-05-06 22:26 | 33.43484 | -112.16086 | 6024 ft | 237 kts | 279° |
| 2026-05-06 22:26 | 33.44069 | -112.17923 | 6934 ft | 240 kts | 303° |
| 2026-05-06 22:26 | 33.45321 | -112.19278 | 7693 ft | 249 kts | 334° |
| 2026-05-06 22:27 | 33.47014 | -112.19758 | 8564 ft | 253 kts | 355° |
| 2026-05-06 22:27 | 33.48759 | -112.19769 | 9584 ft | 250 kts | 1° |
| 2026-05-06 22:27 | 33.50508 | -112.19708 | 10372 ft | 254 kts | 1° |
| 2026-05-06 22:27 | 33.52286 | -112.19659 | 11123 ft | 257 kts | 358° |
| 2026-05-06 22:28 | 33.54108 | -112.19729 | 11672 ft | 271 kts | 356° |
| 2026-05-06 22:28 | 33.56068 | -112.19876 | 12007 ft | 293 kts | 355° |
| 2026-05-06 22:28 | 33.58175 | -112.20057 | 12325 ft | 315 kts | 355° |
| 2026-05-06 22:28 | 33.60399 | -112.20254 | 12663 ft | 334 kts | 355° |
| 2026-05-06 22:29 | 33.62755 | -112.20586 | 13167 ft | 347 kts | 348° |
| 2026-05-06 22:29 | 33.65133 | -112.21250 | 13841 ft | 354 kts | 345° |
| 2026-05-06 22:29 | 33.67566 | -112.22026 | 14497 ft | 360 kts | 344° |
| 2026-05-06 22:29 | 33.69985 | -112.22813 | 15339 ft | 359 kts | 344° |
| 2026-05-06 22:30 | 33.72364 | -112.23587 | 16110 ft | 361 kts | 344° |
| 2026-05-06 22:30 | 33.74803 | -112.24378 | 16811 ft | 365 kts | 344° |
| 2026-05-06 22:30 | 33.77276 | -112.25179 | 17348 ft | 371 kts | 344° |
| 2026-05-06 22:30 | 33.79782 | -112.25989 | 18036 ft | 375 kts | 344° |
| 2026-05-06 22:31 | 33.82321 | -112.26812 | 18605 ft | 380 kts | 344° |
| 2026-05-06 22:31 | 33.84881 | -112.27640 | 19236 ft | 382 kts | 344° |
| 2026-05-06 22:31 | 33.87456 | -112.28472 | 19825 ft | 385 kts | 343° |
| 2026-05-06 22:31 | 33.90060 | -112.29314 | 20412 ft | 388 kts | 344° |
| 2026-05-06 22:32 | 33.92675 | -112.30161 | 21020 ft | 390 kts | 344° |
| 2026-05-06 22:32 | 33.95304 | -112.31013 | 21578 ft | 393 kts | 344° |
| 2026-05-06 22:32 | 33.97951 | -112.31870 | 22174 ft | 396 kts | 344° |
| 2026-05-06 22:32 | 34.00609 | -112.32797 | 22685 ft | 399 kts | 339° |
| 2026-05-06 22:33 | 34.03143 | -112.34168 | 23278 ft | 400 kts | 329° |
| 2026-05-06 22:33 | 34.05434 | -112.36082 | 23706 ft | 403 kts | 321° |
| 2026-05-06 22:33 | 34.07611 | -112.38227 | 24183 ft | 404 kts | 319° |
| 2026-05-06 22:33 | 34.09772 | -112.40417 | 24539 ft | 409 kts | 319° |
| 2026-05-06 22:34 | 34.11957 | -112.42634 | 24914 ft | 412 kts | 319° |
| 2026-05-06 22:34 | 34.14159 | -112.44864 | 25370 ft | 414 kts | 319° |
| 2026-05-06 22:34 | 34.16383 | -112.47111 | 25685 ft | 419 kts | 320° |
| 2026-05-06 22:34 | 34.18626 | -112.49373 | 26115 ft | 420 kts | 320° |
| 2026-05-06 22:35 | 34.20872 | -112.51638 | 26490 ft | 423 kts | 320° |
| 2026-05-06 22:35 | 34.23145 | -112.53931 | 26795 ft | 427 kts | 320° |
| 2026-05-06 22:35 | 34.25419 | -112.56229 | 27256 ft | 426 kts | 320° |
| 2026-05-06 22:35 | 34.27707 | -112.58542 | 27564 ft | 430 kts | 319° |
| 2026-05-06 22:36 | 34.30013 | -112.60872 | 27839 ft | 434 kts | 320° |
| 2026-05-06 22:36 | 34.32329 | -112.63215 | 27913 ft | 433 kts | 320° |
| 2026-05-06 22:36 | 34.34642 | -112.65558 | 27917 ft | 435 kts | 321° |
| 2026-05-06 22:36 | 34.36962 | -112.67908 | 27918 ft | 434 kts | 321° |
| 2026-05-06 22:37 | 34.39276 | -112.70255 | 27915 ft | 434 kts | 321° |
| 2026-05-06 22:37 | 34.41590 | -112.72602 | 27918 ft | 434 kts | 321° |
| 2026-05-06 22:37 | 34.43896 | -112.74947 | 27916 ft | 433 kts | 321° |
| 2026-05-06 22:37 | 34.46211 | -112.77300 | 27917 ft | 433 kts | 321° |
| 2026-05-06 22:38 | 34.48516 | -112.79645 | 27915 ft | 433 kts | 322° |
| 2026-05-06 22:38 | 34.50824 | -112.81996 | 27922 ft | 434 kts | 321° |
| 2026-05-06 22:38 | 34.53137 | -112.84350 | 27920 ft | 435 kts | 321° |
| 2026-05-06 22:38 | 34.55451 | -112.86709 | 27919 ft | 435 kts | 322° |
| 2026-05-06 22:39 | 34.57775 | -112.89078 | 27911 ft | 435 kts | 322° |
| 2026-05-06 22:39 | 34.60061 | -112.91411 | 27921 ft | 436 kts | 322° |
| 2026-05-06 22:39 | 34.62379 | -112.93780 | 27916 ft | 436 kts | 322° |
| 2026-05-06 22:39 | 34.64697 | -112.96153 | 27915 ft | 436 kts | 322° |
| 2026-05-06 22:40 | 34.67016 | -112.98529 | 27912 ft | 436 kts | 322° |
| 2026-05-06 22:40 | 34.69334 | -113.00904 | 27908 ft | 436 kts | 322° |
| 2026-05-06 22:40 | 34.71651 | -113.03278 | 27917 ft | 436 kts | 322° |
| 2026-05-06 22:40 | 34.73970 | -113.05660 | 27925 ft | 436 kts | 322° |
| 2026-05-06 22:41 | 34.78355 | -113.10784 | 27898 ft | 437 kts | 317° |
| 2026-05-06 22:41 | 34.80469 | -113.13442 | 27904 ft | 438 kts | 316° |
| 2026-05-06 22:41 | 34.82570 | -113.16129 | 27915 ft | 438 kts | 316° |
| 2026-05-06 22:42 | 34.84661 | -113.18816 | 27899 ft | 438 kts | 316° |
| 2026-05-06 22:42 | 34.86763 | -113.21516 | 27919 ft | 439 kts | 316° |
| 2026-05-06 22:42 | 34.88864 | -113.24205 | 27912 ft | 439 kts | 316° |
| 2026-05-06 22:42 | 34.90971 | -113.26898 | 27908 ft | 439 kts | 316° |
| 2026-05-06 22:43 | 34.93070 | -113.29590 | 27910 ft | 438 kts | 317° |
| 2026-05-06 22:43 | 34.95174 | -113.32276 | 27902 ft | 437 kts | 317° |
| 2026-05-06 22:43 | 34.97274 | -113.34948 | 27903 ft | 437 kts | 317° |
| 2026-05-06 22:43 | 34.99461 | -113.37508 | 27898 ft | 434 kts | 323° |
| 2026-05-06 22:44 | 35.01761 | -113.39887 | 27909 ft | 434 kts | 323° |
| 2026-05-06 22:44 | 35.04080 | -113.42249 | 27905 ft | 434 kts | 323° |
| 2026-05-06 22:44 | 35.06401 | -113.44594 | 27904 ft | 434 kts | 324° |
| 2026-05-06 22:44 | 35.08730 | -113.46944 | 27907 ft | 434 kts | 323° |
| 2026-05-06 22:45 | 35.11064 | -113.49296 | 27904 ft | 435 kts | 324° |
| 2026-05-06 22:45 | 35.13399 | -113.51651 | 27901 ft | 435 kts | 324° |
| 2026-05-06 22:45 | 35.15731 | -113.54007 | 27906 ft | 435 kts | 324° |
| 2026-05-06 22:45 | 35.18059 | -113.56360 | 27934 ft | 435 kts | 324° |
| 2026-05-06 22:46 | 35.20387 | -113.58713 | 27944 ft | 435 kts | 324° |
| 2026-05-06 22:46 | 35.22719 | -113.61069 | 27964 ft | 435 kts | 324° |
| 2026-05-06 22:46 | 35.25050 | -113.63428 | 27973 ft | 435 kts | 324° |
| 2026-05-06 22:46 | 35.27374 | -113.65781 | 27955 ft | 429 kts | 324° |
| 2026-05-06 22:47 | 35.29614 | -113.68058 | 27531 ft | 410 kts | 324° |
| 2026-05-06 22:47 | 35.31793 | -113.70271 | 26546 ft | 406 kts | 324° |
| 2026-05-06 22:47 | 35.33923 | -113.72432 | 25816 ft | 397 kts | 324° |
| 2026-05-06 22:47 | 35.36041 | -113.74586 | 25305 ft | 383 kts | 324° |
| 2026-05-06 22:48 | 35.38048 | -113.76628 | 24817 ft | 370 kts | 324° |
| 2026-05-06 22:48 | 35.39973 | -113.78587 | 24297 ft | 360 kts | 324° |
| 2026-05-06 22:48 | 35.41880 | -113.80526 | 23734 ft | 353 kts | 324° |
| 2026-05-06 22:48 | 35.43753 | -113.82433 | 23070 ft | 349 kts | 324° |
| 2026-05-06 22:49 | 35.45652 | -113.84361 | 22738 ft | 360 kts | 323° |
| 2026-05-06 22:49 | 35.47564 | -113.86309 | 22442 ft | 355 kts | 323° |
| 2026-05-06 22:49 | 35.49451 | -113.88236 | 21988 ft | 351 kts | 323° |
| 2026-05-06 22:49 | 35.50181 | -113.88981 | 21803 ft | 349 kts | 323° |
| 2026-05-06 22:50 | 35.51582 | -113.90413 | 21451 ft | 347 kts | 323° |
| 2026-05-06 22:50 | 35.53429 | -113.92300 | 20986 ft | 344 kts | 323° |
| 2026-05-06 22:50 | 35.55260 | -113.94172 | 20527 ft | 342 kts | 323° |
| 2026-05-06 22:51 | 35.57081 | -113.96035 | 20050 ft | 339 kts | 323° |
| 2026-05-06 22:51 | 35.58891 | -113.97887 | 19609 ft | 337 kts | 323° |
| 2026-05-06 22:51 | 35.60689 | -113.99729 | 19146 ft | 336 kts | 323° |
| 2026-05-06 22:51 | 35.62482 | -114.01567 | 18688 ft | 335 kts | 323° |
| 2026-05-06 22:52 | 35.64264 | -114.03394 | 18247 ft | 333 kts | 323° |
| 2026-05-06 22:52 | 35.66043 | -114.05219 | 17739 ft | 332 kts | 323° |
| 2026-05-06 22:52 | 35.67804 | -114.07028 | 17283 ft | 329 kts | 323° |
| 2026-05-06 22:52 | 35.69555 | -114.08828 | 16874 ft | 325 kts | 323° |
| 2026-05-06 22:53 | 35.71249 | -114.10573 | 16765 ft | 310 kts | 323° |
| 2026-05-06 22:53 | 35.72887 | -114.12260 | 16398 ft | 306 kts | 324° |
| 2026-05-06 22:53 | 35.74511 | -114.13933 | 15980 ft | 305 kts | 323° |
| 2026-05-06 22:53 | 35.75977 | -114.15835 | 15626 ft | 309 kts | 309° |
| 2026-05-06 22:54 | 35.77124 | -114.18102 | 15339 ft | 315 kts | 303° |
| 2026-05-06 22:54 | 35.78182 | -114.20475 | 15035 ft | 316 kts | 302° |
| 2026-05-06 22:54 | 35.79219 | -114.22849 | 14720 ft | 315 kts | 302° |
| 2026-05-06 22:54 | 35.80256 | -114.25224 | 14414 ft | 314 kts | 302° |
| 2026-05-06 22:55 | 35.81293 | -114.27589 | 14107 ft | 313 kts | 303° |
| 2026-05-06 22:55 | 35.82325 | -114.29939 | 13799 ft | 312 kts | 303° |
| 2026-05-06 22:55 | 35.83360 | -114.32288 | 13465 ft | 311 kts | 304° |
| 2026-05-06 22:55 | 35.84529 | -114.34489 | 13151 ft | 305 kts | 310° |
| 2026-05-06 22:56 | 35.85800 | -114.36567 | 12863 ft | 303 kts | 312° |
| 2026-05-06 22:56 | 35.87088 | -114.38620 | 12575 ft | 302 kts | 312° |
| 2026-05-06 22:56 | 35.88370 | -114.40661 | 12275 ft | 300 kts | 311° |
| 2026-05-06 22:56 | 35.89623 | -114.42661 | 11989 ft | 297 kts | 311° |
| 2026-05-06 22:57 | 35.90898 | -114.44699 | 11697 ft | 295 kts | 311° |
| 2026-05-06 22:57 | 35.92116 | -114.46649 | 11428 ft | 294 kts | 311° |
| 2026-05-06 22:57 | 35.93364 | -114.48654 | 11213 ft | 286 kts | 311° |
| 2026-05-06 22:57 | 35.94541 | -114.50546 | 10991 ft | 277 kts | 311° |
| 2026-05-06 22:58 | 35.95699 | -114.52412 | 10722 ft | 271 kts | 311° |
| 2026-05-06 22:58 | 35.96826 | -114.54235 | 10465 ft | 264 kts | 311° |
| 2026-05-06 22:58 | 35.97928 | -114.56022 | 10210 ft | 258 kts | 311° |
| 2026-05-06 22:58 | 35.99002 | -114.57765 | 9958 ft | 252 kts | 311° |
| 2026-05-06 22:59 | 36.00052 | -114.59471 | 9699 ft | 247 kts | 311° |
| 2026-05-06 22:59 | 36.01095 | -114.61157 | 9433 ft | 247 kts | 311° |
| 2026-05-06 22:59 | 36.02144 | -114.62848 | 9236 ft | 249 kts | 310° |
| 2026-05-06 22:59 | 36.03181 | -114.64550 | 8975 ft | 247 kts | 310° |
| 2026-05-06 23:00 | 36.04149 | -114.66302 | 8713 ft | 246 kts | 305° |
| 2026-05-06 23:00 | 36.05048 | -114.68095 | 8514 ft | 246 kts | 304° |
| 2026-05-06 23:00 | 36.05937 | -114.69903 | 8266 ft | 246 kts | 304° |
| 2026-05-06 23:00 | 36.06807 | -114.71729 | 8021 ft | 247 kts | 299° |
| 2026-05-06 23:01 | 36.07326 | -114.73760 | 7646 ft | 254 kts | 280° |
| 2026-05-06 23:01 | 36.07417 | -114.75904 | 7408 ft | 243 kts | 273° |
| 2026-05-06 23:01 | 36.07410 | -114.77975 | 6904 ft | 239 kts | 272° |
| 2026-05-06 23:01 | 36.07398 | -114.80016 | 6501 ft | 237 kts | 271° |
| 2026-05-06 23:02 | 36.07381 | -114.82048 | 6132 ft | 235 kts | 270° |
| 2026-05-06 23:02 | 36.07363 | -114.84063 | 5775 ft | 234 kts | 271° |
| 2026-05-06 23:02 | 36.07352 | -114.86066 | 5430 ft | 233 kts | 271° |
| 2026-05-06 23:02 | 36.07349 | -114.88064 | 5093 ft | 233 kts | 271° |
| 2026-05-06 23:03 | 36.07352 | -114.90061 | 4739 ft | 231 kts | 271° |
| 2026-05-06 23:03 | 36.07359 | -114.92044 | 4386 ft | 230 kts | 271° |
| 2026-05-06 23:03 | 36.07364 | -114.94020 | 4043 ft | 228 kts | 271° |
| 2026-05-06 23:03 | 36.07366 | -114.95974 | 3783 ft | 226 kts | 271° |
| 2026-05-06 23:04 | 36.07365 | -114.97906 | 3756 ft | 223 kts | 271° |
| 2026-05-06 23:04 | 36.07362 | -114.99807 | 3760 ft | 214 kts | 271° |
| 2026-05-06 23:04 | 36.07361 | -115.01526 | 3749 ft | 187 kts | 271° |
| 2026-05-06 23:04 | 36.07362 | -115.03092 | 3604 ft | 179 kts | 271° |
| 2026-05-06 23:05 | 36.07363 | -115.04566 | 3370 ft | 165 kts | 270° |
| 2026-05-06 23:05 | 36.07362 | -115.05947 | 3167 ft | 159 kts | 271° |
| 2026-05-06 23:05 | 36.07362 | -115.07302 | 2902 ft | 154 kts | 270° |
| 2026-05-06 23:05 | 36.07362 | -115.08612 | 2669 ft | 154 kts | 270° |
| 2026-05-06 23:06 | 36.07373 | -115.09950 | 2437 ft | 158 kts | 269° |
| 2026-05-06 23:06 | 36.07371 | -115.11329 | 2266 ft | 163 kts | 268° |
| 2026-05-06 23:06 | 36.07365 | -115.12267 | 2160 ft | 166 kts | 268° |
| 2026-05-06 23:06 | 36.07363 | -115.13686 | 2078 ft | 159 kts | 269° |
| 2026-05-06 23:07 | 36.07362 | -115.15099 | 2101 ft | 64 kts | 270° |
| 2026-05-06 23:07 | 36.07452 | -115.15470 | 2109 ft | 38 kts | 300° |
| 2026-05-06 23:07 | 36.07570 | -115.15664 | 2119 ft | 14 kts | 316° |
| 2026-05-06 23:07 | 36.07627 | -115.15731 | 2129 ft | 12 kts | 316° |
| 2026-05-06 23:08 | 36.07673 | -115.15784 | 2124 ft | 15 kts | 320° |
| 2026-05-06 23:08 | 36.07809 | -115.15767 | 2112 ft | 11 kts | 80° |
| 2026-05-06 23:08 | 36.07805 | -115.15643 | 2109 ft | 20 kts | 91° |
| 2026-05-06 23:08 | 36.07805 | -115.15432 | 2105 ft | 29 kts | 90° |
| 2026-05-06 23:09 | 36.07805 | -115.15159 | 2104 ft | 33 kts | 90° |
| 2026-05-06 23:09 | 36.07792 | -115.14883 | 2102 ft | 32 kts | 98° |
| 2026-05-06 23:09 | 36.07775 | -115.14700 | 2101 ft | 31 kts | 96° |
| 2026-05-06 23:09 | 36.07761 | -115.14433 | 2100 ft | 31 kts | 94° |
| 2026-05-06 23:10 | 36.07757 | -115.14205 | 2098 ft | 24 kts | 78° |
| 2026-05-06 23:10 | 36.07816 | -115.14125 | 2097 ft | 12 kts | 49° |
| 2026-05-06 23:10 | 36.07850 | -115.13996 | 2096 ft | 21 kts | 47° |
| 2026-05-06 23:10 | 36.07962 | -115.13858 | 2096 ft | 23 kts | 45° |
| 2026-05-06 23:11 | 36.07992 | -115.13820 | 2096 ft | 2 kts | 46° |
| 2026-05-06 23:11 | 36.08005 | -115.13803 | 2096 ft | 4 kts | 48° |
| 2026-05-06 23:11 | 36.08018 | -115.13776 | 2096 ft | 3 kts | 83° |
| 2026-05-06 23:11 | 36.08008 | -115.13737 | 2096 ft | 8 kts | 117° |
| 2026-05-06 23:12 | 36.07987 | -115.13703 | 2095 ft | 0 kts | 134° |
| 2026-05-06 23:12 | 36.07987 | -115.13701 | 2095 ft | 0 kts | 117° |
| 2026-05-06 23:12 | 36.07988 | -115.13697 | 2095 ft | 1 kts | 78° |
| 2026-05-06 23:12 | 36.07993 | -115.13694 | 2095 ft | 1 kts | 26° |
| 2026-05-06 23:13 | 36.08028 | -115.13679 | 2095 ft | 6 kts | 27° |
| 2026-05-06 23:13 | 36.08048 | -115.13655 | 2095 ft | 3 kts | 47° |
| 2026-05-06 23:13 | 36.08050 | -115.13653 | 2095 ft | 0 kts | 47° |